sensor_id;sensor_type;location;lat;lon;timestamp;pressure;altitude;pressure_sealevel;temperature;humidity
11172;BME280;5642;50.830;12.082;2024-01-11T00:02:27;100986.13;;;-4.60;46.87
11172;BME280;5642;50.830;12.082;2024-01-11T00:04:53;100944.72;;;-4.86;46.82
11172;BME280;5642;50.830;12.082;2024-01-11T00:07:25;100934.41;;;-4.87;46.92
11172;BME280;5642;50.830;12.082;2024-01-11T00:09:52;100932.31;;;-4.94;47.36
11172;BME280;5642;50.830;12.082;2024-01-11T00:12:21;100971.97;;;-4.70;46.79
11172;BME280;5642;50.830;12.082;2024-01-11T00:14:48;100894.84;;;-5.25;46.68
11172;BME280;5642;50.830;12.082;2024-01-11T00:17:33;100987.22;;;-4.71;46.85
11172;BME280;5642;50.830;12.082;2024-01-11T00:20:01;100873.66;;;-5.38;47.30
11172;BME280;5642;50.830;12.082;2024-01-11T00:22:29;100897.59;;;-5.22;46.74
11172;BME280;5642;50.830;12.082;2024-01-11T00:25:25;100879.66;;;-5.38;47.02
11172;BME280;5642;50.830;12.082;2024-01-11T00:28:26;100873.34;;;-5.44;47.18
11172;BME280;5642;50.830;12.082;2024-01-11T00:31:00;100978.09;;;-4.83;47.33
11172;BME280;5642;50.830;12.082;2024-01-11T00:33:30;100969.81;;;-4.79;46.86
11172;BME280;5642;50.830;12.082;2024-01-11T00:36:00;100952.94;;;-4.75;47.21
11172;BME280;5642;50.830;12.082;2024-01-11T00:38:28;100966.69;;;-4.73;47.07
11172;BME280;5642;50.830;12.082;2024-01-11T00:40:55;100946.78;;;-4.79;46.49
11172;BME280;5642;50.830;12.082;2024-01-11T00:43:24;100934.56;;;-4.84;46.99
11172;BME280;5642;50.830;12.082;2024-01-11T00:45:52;100943.59;;;-4.75;46.83
11172;BME280;5642;50.830;12.082;2024-01-11T00:48:21;100896.84;;;-5.04;47.15
11172;BME280;5642;50.830;12.082;2024-01-11T00:50:50;100849.34;;;-5.32;46.79
11172;BME280;5642;50.830;12.082;2024-01-11T00:53:18;100928.72;;;-4.82;46.88
11172;BME280;5642;50.830;12.082;2024-01-11T00:55:47;100886.44;;;-5.07;47.20
11172;BME280;5642;50.830;12.082;2024-01-11T00:58:20;100873.97;;;-5.18;46.76
11172;BME280;5642;50.830;12.082;2024-01-11T01:00:49;100938.94;;;-4.82;47.12
11172;BME280;5642;50.830;12.082;2024-01-11T01:03:18;100924.81;;;-4.91;47.28
11172;BME280;5642;50.830;12.082;2024-01-11T01:05:47;100938.63;;;-4.88;46.65
11172;BME280;5642;50.830;12.082;2024-01-11T01:08:14;100931.69;;;-4.90;46.80
11172;BME280;5642;50.830;12.082;2024-01-11T01:10:43;100873.47;;;-5.27;46.82
11172;BME280;5642;50.830;12.082;2024-01-11T01:13:16;100848.31;;;-5.35;46.60
11172;BME280;5642;50.830;12.082;2024-01-11T01:15:43;100870.47;;;-5.20;47.30
11172;BME280;5642;50.830;12.082;2024-01-11T01:18:13;100820.16;;;-5.52;46.81
11172;BME280;5642;50.830;12.082;2024-01-11T01:20:40;100919.72;;;-4.91;46.57
11172;BME280;5642;50.830;12.082;2024-01-11T01:23:11;100933.94;;;-4.80;46.66
11172;BME280;5642;50.830;12.082;2024-01-11T01:25:37;100831.03;;;-5.39;46.66
11172;BME280;5642;50.830;12.082;2024-01-11T01:28:07;100900.66;;;-4.96;46.77
11172;BME280;5642;50.830;12.082;2024-01-11T01:30:33;100824.91;;;-5.43;46.72
11172;BME280;5642;50.830;12.082;2024-01-11T01:33:00;100805.50;;;-5.56;47.00
11172;BME280;5642;50.830;12.082;2024-01-11T01:35:28;100923.16;;;-4.91;46.89
11172;BME280;5642;50.830;12.082;2024-01-11T01:37:55;100828.63;;;-5.53;46.76
11172;BME280;5642;50.830;12.082;2024-01-11T01:40:24;100920.00;;;-5.01;46.84
11172;BME280;5642;50.830;12.082;2024-01-11T01:42:58;100894.56;;;-5.15;46.68
11172;BME280;5642;50.830;12.082;2024-01-11T01:45:33;100884.31;;;-5.31;47.00
11172;BME280;5642;50.830;12.082;2024-01-11T01:48:01;100916.88;;;-5.12;46.52
11172;BME280;5642;50.830;12.082;2024-01-11T01:50:31;100867.00;;;-5.51;47.02
11172;BME280;5642;50.830;12.082;2024-01-11T01:52:58;100853.56;;;-5.63;47.24
11172;BME280;5642;50.830;12.082;2024-01-11T01:55:27;100910.63;;;-5.32;46.72
11172;BME280;5642;50.830;12.082;2024-01-11T01:57:55;100891.44;;;-5.40;47.22
11172;BME280;5642;50.830;12.082;2024-01-11T02:00:25;100906.94;;;-5.22;46.92
11172;BME280;5642;50.830;12.082;2024-01-11T02:02:55;100906.22;;;-5.20;47.16
11172;BME280;5642;50.830;12.082;2024-01-11T02:05:24;100800.44;;;-5.70;47.04
11172;BME280;5642;50.830;12.082;2024-01-11T02:07:53;100882.34;;;-5.20;47.17
11172;BME280;5642;50.830;12.082;2024-01-11T02:10:20;100814.66;;;-5.59;46.56
11172;BME280;5642;50.830;12.082;2024-01-11T02:12:50;100876.09;;;-5.25;47.17
11172;BME280;5642;50.830;12.082;2024-01-11T02:15:16;100909.09;;;-5.14;46.72
11172;BME280;5642;50.830;12.082;2024-01-11T02:17:42;100906.22;;;-5.20;46.87
11172;BME280;5642;50.830;12.082;2024-01-11T02:20:10;100912.38;;;-5.16;46.72
11172;BME280;5642;50.830;12.082;2024-01-11T02:22:40;100904.69;;;-5.16;47.45
11172;BME280;5642;50.830;12.082;2024-01-11T02:25:11;100895.03;;;-5.22;47.07
11172;BME280;5642;50.830;12.082;2024-01-11T02:27:50;100881.28;;;-5.24;46.71
11172;BME280;5642;50.830;12.082;2024-01-11T02:30:17;100912.19;;;-5.04;47.03
11172;BME280;5642;50.830;12.082;2024-01-11T02:32:49;100849.31;;;-5.48;46.85
11172;BME280;5642;50.830;12.082;2024-01-11T02:35:17;100920.31;;;-5.11;46.71
11172;BME280;5642;50.830;12.082;2024-01-11T02:37:46;100891.19;;;-5.30;46.56
11172;BME280;5642;50.830;12.082;2024-01-11T02:40:14;100897.50;;;-5.23;46.59
11172;BME280;5642;50.830;12.082;2024-01-11T02:42:42;100853.78;;;-5.44;46.75
11172;BME280;5642;50.830;12.082;2024-01-11T02:45:10;100931.88;;;-5.02;46.65
11172;BME280;5642;50.830;12.082;2024-01-11T02:47:39;100929.19;;;-5.05;46.45
11172;BME280;5642;50.830;12.082;2024-01-11T02:50:06;100835.16;;;-5.58;46.37
11172;BME280;5642;50.830;12.082;2024-01-11T02:52:36;100876.50;;;-5.34;47.04
11172;BME280;5642;50.830;12.082;2024-01-11T02:55:03;100856.09;;;-5.48;46.64
11172;BME280;5642;50.830;12.082;2024-01-11T02:57:33;100802.38;;;-5.81;46.67
11172;BME280;5642;50.830;12.082;2024-01-11T02:59:59;100895.03;;;-5.22;46.84
11172;BME280;5642;50.830;12.082;2024-01-11T03:02:26;100891.25;;;-5.28;46.99
11172;BME280;5642;50.830;12.082;2024-01-11T03:04:53;100863.66;;;-5.50;46.56
11172;BME280;5642;50.830;12.082;2024-01-11T03:07:21;100883.78;;;-5.40;46.79
11172;BME280;5642;50.830;12.082;2024-01-11T03:09:49;100858.31;;;-5.55;46.48
11172;BME280;5642;50.830;12.082;2024-01-11T03:12:17;100941.78;;;-5.08;47.10
11172;BME280;5642;50.830;12.082;2024-01-11T03:14:43;100893.81;;;-5.28;46.93
11172;BME280;5642;50.830;12.082;2024-01-11T03:17:10;100875.97;;;-5.43;46.74
11172;BME280;5642;50.830;12.082;2024-01-11T03:19:40;100892.97;;;-5.43;46.66
11172;BME280;5642;50.830;12.082;2024-01-11T03:22:10;100938.56;;;-5.20;47.13
11172;BME280;5642;50.830;12.082;2024-01-11T03:24:47;100886.31;;;-5.56;46.67
11172;BME280;5642;50.830;12.082;2024-01-11T03:27:15;100940.91;;;-5.23;47.00
11172;BME280;5642;50.830;12.082;2024-01-11T03:29:42;100873.25;;;-5.61;47.02
11172;BME280;5642;50.830;12.082;2024-01-11T03:32:12;100951.31;;;-5.20;46.95
11172;BME280;5642;50.830;12.082;2024-01-11T03:34:40;100884.03;;;-5.66;47.12
11172;BME280;5642;50.830;12.082;2024-01-11T03:37:12;100968.66;;;-5.15;46.69
11172;BME280;5642;50.830;12.082;2024-01-11T03:39:38;100884.44;;;-5.59;46.67
11172;BME280;5642;50.830;12.082;2024-01-11T03:42:06;100941.44;;;-5.14;47.09
11172;BME280;5642;50.830;12.082;2024-01-11T03:44:33;100883.44;;;-5.46;46.81
11172;BME280;5642;50.830;12.082;2024-01-11T03:47:03;100878.66;;;-5.56;46.88
11172;BME280;5642;50.830;12.082;2024-01-11T03:49:30;100901.09;;;-5.50;46.93
11172;BME280;5642;50.830;12.082;2024-01-11T03:51:59;100932.75;;;-5.32;46.63
11172;BME280;5642;50.830;12.082;2024-01-11T03:54:29;100955.88;;;-5.15;46.34
11172;BME280;5642;50.830;12.082;2024-01-11T03:56:57;100917.97;;;-5.38;46.98
11172;BME280;5642;50.830;12.082;2024-01-11T03:59:23;100932.94;;;-5.29;46.97
11172;BME280;5642;50.830;12.082;2024-01-11T04:01:59;100897.19;;;-5.44;46.64
11172;BME280;5642;50.830;12.082;2024-01-11T04:04:28;100934.22;;;-5.21;46.92
11172;BME280;5642;50.830;12.082;2024-01-11T04:06:55;100875.22;;;-5.57;46.70
11172;BME280;5642;50.830;12.082;2024-01-11T04:09:24;100882.09;;;-5.56;46.66
11172;BME280;5642;50.830;12.082;2024-01-11T04:11:52;100921.50;;;-5.36;46.61
11172;BME280;5642;50.830;12.082;2024-01-11T04:14:31;100935.91;;;-5.22;47.20
11172;BME280;5642;50.830;12.082;2024-01-11T04:16:57;100871.88;;;-5.56;46.66
11172;BME280;5642;50.830;12.082;2024-01-11T04:19:29;100839.63;;;-5.84;46.36
11172;BME280;5642;50.830;12.082;2024-01-11T04:21:57;100821.06;;;-5.97;46.50
11172;BME280;5642;50.830;12.082;2024-01-11T04:24:26;100916.84;;;-5.43;46.60
11172;BME280;5642;50.830;12.082;2024-01-11T04:26:52;100880.94;;;-5.75;46.71
11172;BME280;5642;50.830;12.082;2024-01-11T04:29:21;100846.25;;;-6.03;46.64
11172;BME280;5642;50.830;12.082;2024-01-11T04:31:48;100858.13;;;-6.03;46.41
11172;BME280;5642;50.830;12.082;2024-01-11T04:34:24;100860.59;;;-6.05;46.64
11172;BME280;5642;50.830;12.082;2024-01-11T04:36:53;100887.22;;;-5.85;46.65
11172;BME280;5642;50.830;12.082;2024-01-11T04:39:21;100937.28;;;-5.58;47.21
11172;BME280;5642;50.830;12.082;2024-01-11T04:41:50;100880.91;;;-5.91;46.72
11172;BME280;5642;50.830;12.082;2024-01-11T04:44:17;100929.19;;;-5.65;46.26
11172;BME280;5642;50.830;12.082;2024-01-11T04:46:47;100801.50;;;-6.27;46.50
11172;BME280;5642;50.830;12.082;2024-01-11T04:49:14;100845.28;;;-6.05;46.73
11172;BME280;5642;50.830;12.082;2024-01-11T04:51:45;100824.69;;;-6.08;46.64
11172;BME280;5642;50.830;12.082;2024-01-11T04:54:12;100880.34;;;-5.86;46.70
11172;BME280;5642;50.830;12.082;2024-01-11T04:56:41;100871.81;;;-5.86;46.83
11172;BME280;5642;50.830;12.082;2024-01-11T04:59:08;100885.69;;;-5.81;46.43
11172;BME280;5642;50.830;12.082;2024-01-11T05:01:37;100894.09;;;-5.84;46.40
11172;BME280;5642;50.830;12.082;2024-01-11T05:04:06;100911.16;;;-5.83;46.61
11172;BME280;5642;50.830;12.082;2024-01-11T05:06:59;100941.06;;;-5.80;46.33
11172;BME280;5642;50.830;12.082;2024-01-11T05:09:32;100934.31;;;-5.95;46.41
11172;BME280;5642;50.830;12.082;2024-01-11T05:11:58;100932.19;;;-6.02;46.49
11172;BME280;5642;50.830;12.082;2024-01-11T05:14:25;100884.66;;;-6.29;46.42
11172;BME280;5642;50.830;12.082;2024-01-11T05:16:53;100896.56;;;-6.15;46.70
11172;BME280;5642;50.830;12.082;2024-01-11T05:19:25;100940.00;;;-5.84;46.67
11172;BME280;5642;50.830;12.082;2024-01-11T05:21:56;100913.53;;;-6.01;46.67
11172;BME280;5642;50.830;12.082;2024-01-11T05:24:23;100908.53;;;-6.14;46.62
11172;BME280;5642;50.830;12.082;2024-01-11T05:26:52;100981.13;;;-5.65;46.71
11172;BME280;5642;50.830;12.082;2024-01-11T05:29:22;100924.63;;;-5.85;46.73
11172;BME280;5642;50.830;12.082;2024-01-11T05:31:53;100933.41;;;-5.80;46.04
11172;BME280;5642;50.830;12.082;2024-01-11T05:34:23;100974.94;;;-5.39;46.33
11172;BME280;5642;50.830;12.082;2024-01-11T05:36:51;100974.69;;;-5.43;46.78
11172;BME280;5642;50.830;12.082;2024-01-11T05:39:21;100993.00;;;-5.36;46.47
11172;BME280;5642;50.830;12.082;2024-01-11T05:41:48;100911.66;;;-5.74;46.59
11172;BME280;5642;50.830;12.082;2024-01-11T05:44:19;101004.00;;;-5.22;46.65
11172;BME280;5642;50.830;12.082;2024-01-11T05:46:47;100900.31;;;-5.79;46.50
11172;BME280;5642;50.830;12.082;2024-01-11T05:49:15;100971.94;;;-5.32;46.51
11172;BME280;5642;50.830;12.082;2024-01-11T05:51:44;100902.78;;;-5.66;46.12
11172;BME280;5642;50.830;12.082;2024-01-11T05:54:14;100936.63;;;-5.39;46.22
11172;BME280;5642;50.830;12.082;2024-01-11T05:56:45;100886.22;;;-5.72;46.40
11172;BME280;5642;50.830;12.082;2024-01-11T05:59:19;100874.00;;;-5.78;46.79
11172;BME280;5642;50.830;12.082;2024-01-11T06:01:47;100867.06;;;-5.80;46.42
11172;BME280;5642;50.830;12.082;2024-01-11T06:04:15;100886.56;;;-5.66;46.03
11172;BME280;5642;50.830;12.082;2024-01-11T06:06:42;100938.94;;;-5.43;46.65
11172;BME280;5642;50.830;12.082;2024-01-11T06:09:12;100955.66;;;-5.34;46.32
11172;BME280;5642;50.830;12.082;2024-01-11T06:11:41;100868.94;;;-5.93;46.89
11172;BME280;5642;50.830;12.082;2024-01-11T06:14:10;100928.53;;;-5.61;46.33
11172;BME280;5642;50.830;12.082;2024-01-11T06:16:37;100947.22;;;-5.62;46.25
11172;BME280;5642;50.830;12.082;2024-01-11T06:19:07;100948.03;;;-5.63;46.14
11172;BME280;5642;50.830;12.082;2024-01-11T06:21:35;100853.88;;;-6.17;46.61
11172;BME280;5642;50.830;12.082;2024-01-11T06:24:04;100894.22;;;-5.97;46.38
11172;BME280;5642;50.830;12.082;2024-01-11T06:26:32;100872.81;;;-6.14;46.16
11172;BME280;5642;50.830;12.082;2024-01-11T06:29:01;100916.78;;;-6.03;46.42
11172;BME280;5642;50.830;12.082;2024-01-11T06:31:28;100934.06;;;-5.99;46.99
11172;BME280;5642;50.830;12.082;2024-01-11T06:33:59;100862.38;;;-6.46;46.59
11172;BME280;5642;50.830;12.082;2024-01-11T06:36:26;100953.75;;;-5.97;46.63
11172;BME280;5642;50.830;12.082;2024-01-11T06:39:03;100943.16;;;-6.17;46.68
11172;BME280;5642;50.830;12.082;2024-01-11T06:41:40;101016.41;;;-5.72;46.66
11172;BME280;5642;50.830;12.082;2024-01-11T06:44:09;100947.94;;;-6.09;46.19
11172;BME280;5642;50.830;12.082;2024-01-11T06:46:37;100945.41;;;-5.94;46.44
11172;BME280;5642;50.830;12.082;2024-01-11T06:49:13;100948.38;;;-5.86;46.59
11172;BME280;5642;50.830;12.082;2024-01-11T06:51:44;100939.13;;;-5.84;46.78
11172;BME280;5642;50.830;12.082;2024-01-11T06:54:11;100894.03;;;-6.00;46.69
11172;BME280;5642;50.830;12.082;2024-01-11T06:56:39;100896.13;;;-5.93;46.34
11172;BME280;5642;50.830;12.082;2024-01-11T06:59:21;101004.53;;;-5.28;46.55
11172;BME280;5642;50.830;12.082;2024-01-11T07:02:10;100928.41;;;-5.79;46.70
11172;BME280;5642;50.830;12.082;2024-01-11T07:05:08;100927.69;;;-5.76;46.72
11172;BME280;5642;50.830;12.082;2024-01-11T07:10:28;100912.88;;;-5.67;46.50
11172;BME280;5642;50.830;12.082;2024-01-11T07:12:56;100954.84;;;-5.33;46.08
11172;BME280;5642;50.830;12.082;2024-01-11T07:15:40;101022.28;;;-4.85;46.21
11172;BME280;5642;50.830;12.082;2024-01-11T07:18:36;101004.56;;;-4.97;46.54
11172;BME280;5642;50.830;12.082;2024-01-11T07:21:04;100956.53;;;-5.19;46.29
11172;BME280;5642;50.830;12.082;2024-01-11T07:23:32;100933.97;;;-5.26;46.39
11172;BME280;5642;50.830;12.082;2024-01-11T07:26:04;100939.47;;;-5.03;46.37
11172;BME280;5642;50.830;12.082;2024-01-11T07:28:34;100868.44;;;-5.25;46.25
11172;BME280;5642;50.830;12.082;2024-01-11T07:31:03;100896.28;;;-4.99;46.30
11172;BME280;5642;50.830;12.082;2024-01-11T07:33:31;100952.19;;;-4.58;46.00
11172;BME280;5642;50.830;12.082;2024-01-11T07:36:03;100997.13;;;-4.14;46.03
11172;BME280;5642;50.830;12.082;2024-01-11T07:38:32;100863.88;;;-4.67;45.86
11172;BME280;5642;50.830;12.082;2024-01-11T07:41:03;100943.13;;;-4.03;45.73
11172;BME280;5642;50.830;12.082;2024-01-11T07:43:35;100860.56;;;-4.32;45.62
11172;BME280;5642;50.830;12.082;2024-01-11T07:46:04;100944.19;;;-3.65;45.60
11172;BME280;5642;50.830;12.082;2024-01-11T07:48:33;100941.63;;;-3.65;45.09
11172;BME280;5642;50.830;12.082;2024-01-11T07:51:01;100967.25;;;-3.47;45.38
11172;BME280;5642;50.830;12.082;2024-01-11T07:53:36;100846.75;;;-4.02;44.95
11172;BME280;5642;50.830;12.082;2024-01-11T07:56:04;100895.44;;;-3.67;45.28
11172;BME280;5642;50.830;12.082;2024-01-11T07:58:32;100858.91;;;-3.80;44.90
11172;BME280;5642;50.830;12.082;2024-01-11T08:01:04;100932.41;;;-3.26;45.07
11172;BME280;5642;50.830;12.082;2024-01-11T08:03:34;100849.25;;;-3.68;44.95
11172;BME280;5642;50.830;12.082;2024-01-11T08:06:02;100853.50;;;-3.69;45.19
11172;BME280;5642;50.830;12.082;2024-01-11T08:08:30;100871.16;;;-3.57;44.80
11172;BME280;5642;50.830;12.082;2024-01-11T08:10:58;100855.44;;;-3.65;44.94
11172;BME280;5642;50.830;12.082;2024-01-11T08:13:30;100873.19;;;-3.32;45.02
11172;BME280;5642;50.830;12.082;2024-01-11T08:16:17;100933.53;;;-2.84;45.27
11172;BME280;5642;50.830;12.082;2024-01-11T08:18:47;100943.00;;;-2.83;45.25
11172;BME280;5642;50.830;12.082;2024-01-11T08:21:19;100912.63;;;-2.93;45.45
11172;BME280;5642;50.830;12.082;2024-01-11T08:24:01;100943.88;;;-2.65;45.48
11172;BME280;5642;50.830;12.082;2024-01-11T08:26:29;100902.66;;;-2.87;45.33
11172;BME280;5642;50.830;12.082;2024-01-11T08:29:01;100812.66;;;-3.48;45.63
11172;BME280;5642;50.830;12.082;2024-01-11T08:31:31;100858.69;;;-3.32;45.69
11172;BME280;5642;50.830;12.082;2024-01-11T08:33:59;100945.72;;;-2.80;45.99
11172;BME280;5642;50.830;12.082;2024-01-11T08:36:33;100835.00;;;-3.45;46.20
11172;BME280;5642;50.830;12.082;2024-01-11T08:39:06;100946.88;;;-2.91;46.14
11172;BME280;5642;50.830;12.082;2024-01-11T08:41:38;100873.59;;;-3.42;46.10
11172;BME280;5642;50.830;12.082;2024-01-11T08:44:10;100930.66;;;-3.09;46.16
11172;BME280;5642;50.830;12.082;2024-01-11T08:46:37;100947.94;;;-2.88;46.71
11172;BME280;5642;50.830;12.082;2024-01-11T08:49:06;100922.28;;;-2.88;46.56
11172;BME280;5642;50.830;12.082;2024-01-11T08:51:40;100894.50;;;-2.79;45.95
11172;BME280;5642;50.830;12.082;2024-01-11T08:54:06;100816.03;;;-3.12;45.74
11172;BME280;5642;50.830;12.082;2024-01-11T08:56:38;100835.56;;;-2.96;46.13
11172;BME280;5642;50.830;12.082;2024-01-11T08:59:13;100869.00;;;-2.56;46.10
11172;BME280;5642;50.830;12.082;2024-01-11T09:01:41;100854.59;;;-2.53;45.77
11172;BME280;5642;50.830;12.082;2024-01-11T09:04:11;100827.56;;;-2.65;45.79
11172;BME280;5642;50.830;12.082;2024-01-11T09:06:44;100887.69;;;-2.20;45.49
11172;BME280;5642;50.830;12.082;2024-01-11T09:09:12;100915.53;;;-1.89;45.83
11172;BME280;5642;50.830;12.082;2024-01-11T09:11:40;100925.97;;;-1.66;45.60
11172;BME280;5642;50.830;12.082;2024-01-11T09:14:08;100843.69;;;-2.09;45.85
11172;BME280;5642;50.830;12.082;2024-01-11T09:16:42;100836.47;;;-1.97;45.09
11172;BME280;5642;50.830;12.082;2024-01-11T09:19:13;100925.00;;;-1.26;45.33
11172;BME280;5642;50.830;12.082;2024-01-11T09:21:41;100836.22;;;-1.61;45.08
11172;BME280;5642;50.830;12.082;2024-01-11T09:24:14;100814.50;;;-1.47;45.05
11172;BME280;5642;50.830;12.082;2024-01-11T09:26:46;100829.53;;;-1.13;45.16
11172;BME280;5642;50.830;12.082;2024-01-11T09:29:20;100895.13;;;-0.56;45.31
11172;BME280;5642;50.830;12.082;2024-01-11T09:31:48;100847.97;;;-0.78;45.09
11172;BME280;5642;50.830;12.082;2024-01-11T09:34:17;100946.75;;;-0.05;45.18
11172;BME280;5642;50.830;12.082;2024-01-11T09:36:44;100894.13;;;-0.35;44.90
11172;BME280;5642;50.830;12.082;2024-01-11T09:39:17;100958.13;;;0.02;45.15
11172;BME280;5642;50.830;12.082;2024-01-11T09:42:14;100884.50;;;-0.41;45.10
11172;BME280;5642;50.830;12.082;2024-01-11T09:44:44;100843.66;;;-0.56;44.97
11172;BME280;5642;50.830;12.082;2024-01-11T09:47:16;100901.94;;;-0.10;45.48
11172;BME280;5642;50.830;12.082;2024-01-11T09:49:53;100819.84;;;-0.50;45.33
11172;BME280;5642;50.830;12.082;2024-01-11T09:52:22;100815.06;;;-0.40;45.49
11172;BME280;5642;50.830;12.082;2024-01-11T09:54:57;100869.66;;;0.01;45.25
11172;BME280;5642;50.830;12.082;2024-01-11T09:57:32;100799.06;;;-0.31;45.26
11172;BME280;5642;50.830;12.082;2024-01-11T10:00:37;100876.16;;;0.15;45.45
11172;BME280;5642;50.830;12.082;2024-01-11T10:03:07;100841.56;;;0.07;44.99
11172;BME280;5642;50.830;12.082;2024-01-11T10:05:36;100845.25;;;0.15;44.94
11172;BME280;5642;50.830;12.082;2024-01-11T10:08:04;100820.97;;;0.09;45.30
11172;BME280;5642;50.830;12.082;2024-01-11T10:10:32;100886.03;;;0.54;45.02
11172;BME280;5642;50.830;12.082;2024-01-11T10:13:01;100797.13;;;0.14;45.10
11172;BME280;5642;50.830;12.082;2024-01-11T10:15:28;100851.91;;;0.61;45.08
11172;BME280;5642;50.830;12.082;2024-01-11T10:17:56;100830.25;;;0.56;45.21
11172;BME280;5642;50.830;12.082;2024-01-11T10:20:25;100920.59;;;1.14;44.94
11172;BME280;5642;50.830;12.082;2024-01-11T10:22:57;100838.31;;;0.66;45.12
11172;BME280;5642;50.830;12.082;2024-01-11T10:25:23;100875.19;;;0.91;45.21
11172;BME280;5642;50.830;12.082;2024-01-11T10:27:55;100910.16;;;1.09;45.30
11172;BME280;5642;50.830;12.082;2024-01-11T10:30:34;100856.72;;;0.78;45.57
11172;BME280;5642;50.830;12.082;2024-01-11T10:33:12;100875.59;;;1.04;45.49
11172;BME280;5642;50.830;12.082;2024-01-11T10:35:42;100885.34;;;1.14;45.65
11172;BME280;5642;50.830;12.082;2024-01-11T10:38:16;100886.03;;;1.37;45.72
11172;BME280;5642;50.830;12.082;2024-01-11T10:40:48;100825.59;;;1.31;45.56
11172;BME280;5642;50.830;12.082;2024-01-11T10:43:19;100801.19;;;2.17;45.49
11172;BME280;5642;50.830;12.082;2024-01-11T10:45:49;100859.09;;;3.79;45.35
11172;BME280;5642;50.830;12.082;2024-01-11T10:48:38;100872.81;;;5.35;45.28
11172;BME280;5642;50.830;12.082;2024-01-11T10:51:26;100884.66;;;6.73;45.38
11172;BME280;5642;50.830;12.082;2024-01-11T10:54:07;100788.59;;;7.34;45.36
11172;BME280;5642;50.830;12.082;2024-01-11T10:56:36;100746.97;;;8.17;45.60
11172;BME280;5642;50.830;12.082;2024-01-11T10:59:07;100768.53;;;9.23;45.26
11172;BME280;5642;50.830;12.082;2024-01-11T11:01:42;100768.00;;;10.08;44.96
11172;BME280;5642;50.830;12.082;2024-01-11T11:04:15;100709.16;;;10.51;45.02
11172;BME280;5642;50.830;12.082;2024-01-11T11:06:46;100756.03;;;11.46;44.99
11172;BME280;5642;50.830;12.082;2024-01-11T11:09:19;100750.72;;;12.10;44.82
11172;BME280;5642;50.830;12.082;2024-01-11T11:11:48;100741.72;;;12.73;45.00
11172;BME280;5642;50.830;12.082;2024-01-11T11:14:19;100747.59;;;13.30;44.99
11172;BME280;5642;50.830;12.082;2024-01-11T11:16:55;100787.84;;;13.75;44.90
11172;BME280;5642;50.830;12.082;2024-01-11T11:19:27;100765.75;;;13.81;44.66
11172;BME280;5642;50.830;12.082;2024-01-11T11:22:18;100757.25;;;14.06;44.71
11172;BME280;5642;50.830;12.082;2024-01-11T11:25:03;100809.41;;;14.65;44.44
11172;BME280;5642;50.830;12.082;2024-01-11T11:27:59;100730.97;;;14.39;44.52
11172;BME280;5642;50.830;12.082;2024-01-11T11:30:37;100749.31;;;14.43;44.61
11172;BME280;5642;50.830;12.082;2024-01-11T11:33:37;100749.31;;;14.43;44.90
11172;BME280;5642;50.830;12.082;2024-01-11T11:36:12;100696.94;;;14.28;44.56
11172;BME280;5642;50.830;12.082;2024-01-11T11:38:44;100701.13;;;14.38;44.55
11172;BME280;5642;50.830;12.082;2024-01-11T11:41:16;100741.25;;;14.82;44.42
11172;BME280;5642;50.830;12.082;2024-01-11T11:43:49;100705.03;;;14.87;44.34
11172;BME280;5642;50.830;12.082;2024-01-11T11:46:22;100762.69;;;15.32;43.99
11172;BME280;5642;50.830;12.082;2024-01-11T11:48:51;100729.41;;;15.26;43.68
11172;BME280;5642;50.830;12.082;2024-01-11T11:51:19;100723.31;;;15.24;43.18
11172;BME280;5642;50.830;12.082;2024-01-11T11:53:49;100681.09;;;14.93;42.73
11172;BME280;5642;50.830;12.082;2024-01-11T11:56:30;100702.97;;;14.98;42.07
11172;BME280;5642;50.830;12.082;2024-01-11T11:59:00;100687.63;;;14.81;41.27
11172;BME280;5642;50.830;12.082;2024-01-11T12:01:32;100690.91;;;14.57;40.67
11172;BME280;5642;50.830;12.082;2024-01-11T12:04:01;100736.22;;;14.40;40.34
11172;BME280;5642;50.830;12.082;2024-01-11T12:06:30;100708.13;;;13.68;40.21
11172;BME280;5642;50.830;12.082;2024-01-11T12:09:08;100734.75;;;13.15;40.31
11172;BME280;5642;50.830;12.082;2024-01-11T12:11:50;100761.38;;;12.52;40.63
11172;BME280;5642;50.830;12.082;2024-01-11T12:14:22;100753.91;;;11.74;40.69
11172;BME280;5642;50.830;12.082;2024-01-11T12:16:59;100735.72;;;10.94;40.91
11172;BME280;5642;50.830;12.082;2024-01-11T12:19:45;100671.50;;;9.64;41.80
11172;BME280;5642;50.830;12.082;2024-01-11T12:22:12;100705.78;;;9.18;41.87
11172;BME280;5642;50.830;12.082;2024-01-11T12:24:40;100682.56;;;8.50;42.34
11172;BME280;5642;50.830;12.082;2024-01-11T12:27:16;100700.03;;;7.93;42.93
11172;BME280;5642;50.830;12.082;2024-01-11T12:29:44;100695.66;;;7.51;43.19
11172;BME280;5642;50.830;12.082;2024-01-11T12:32:10;100706.00;;;7.15;43.12
11172;BME280;5642;50.830;12.082;2024-01-11T12:35:07;100659.78;;;6.57;43.63
11172;BME280;5642;50.830;12.082;2024-01-11T12:37:38;100719.69;;;6.63;43.34
11172;BME280;5642;50.830;12.082;2024-01-11T12:40:19;100695.16;;;6.26;43.25
11172;BME280;5642;50.830;12.082;2024-01-11T12:42:50;100683.75;;;6.06;43.14
11172;BME280;5642;50.830;12.082;2024-01-11T12:45:17;100704.50;;;5.99;43.55
11172;BME280;5642;50.830;12.082;2024-01-11T12:47:44;100623.44;;;5.44;43.31
11172;BME280;5642;50.830;12.082;2024-01-11T12:50:14;100658.22;;;5.58;43.64
11172;BME280;5642;50.830;12.082;2024-01-11T12:52:40;100686.91;;;5.67;43.31
11172;BME280;5642;50.830;12.082;2024-01-11T12:55:20;100629.50;;;5.43;43.44
11172;BME280;5642;50.830;12.082;2024-01-11T12:58:06;100714.13;;;6.09;43.37
11172;BME280;5642;50.830;12.082;2024-01-11T13:00:37;100655.97;;;6.01;43.17
11172;BME280;5642;50.830;12.082;2024-01-11T13:03:10;100626.53;;;6.06;42.93
11172;BME280;5642;50.830;12.082;2024-01-11T13:05:38;100691.06;;;6.68;42.58
11172;BME280;5642;50.830;12.082;2024-01-11T13:08:08;100665.03;;;6.71;42.55
11172;BME280;5642;50.830;12.082;2024-01-11T13:10:41;100693.75;;;6.91;42.41
11172;BME280;5642;50.830;12.082;2024-01-11T13:13:08;100717.28;;;7.18;42.64
11172;BME280;5642;50.830;12.082;2024-01-11T13:15:35;100688.63;;;7.07;42.36
11172;BME280;5642;50.830;12.082;2024-01-11T13:18:19;100638.13;;;6.75;42.82